Hemet, CA (92544)

10:54 AM PDT on October 23, 2014 (GMT -0700)
East Hemet (Angler's Lake)HasGrove | Change Station
CLOSE
Current Station
Personal Weather Station
Location: Hemet, CA
Elevation: 1772 ft
Nearby Weather Stations

Elev 1772 ft 33.73 °N, 116.92 °W | Updated 9 seconds ago

Clear
Clear
86.7 °F
Feels Like 83 °F
N
0.0
Wind Variable Wind from SE
Gusts 3.0 mph

Today
High -- | Low -- °F
--% Chance of Precip.
Yesterday
High -- | Low -- °F
Precip. -- in
6:58 AM 6:04 PM
Waning Crescent, 0% visible
Pressure 30.03 in
Visibility 10.0 miles
Clouds Clear
Heat Index 83 °F
Dew Point 35 °F
Humidity 16%
Rainfall 0.00 in
Snow Depth Not available.
UV 4.0 out of 12
Pollen 3.80 out of 12
Ozone Good
PM2.5 Good
Flu Activity Sporadic
METAR KF70 231735Z AUTO 00000KT 10SM CLR 25/03 A3003 RMK AO1

More Conditions Fewer Conditions

Pressure 30.03 in
Visibility 10.0 miles
Clouds Clear
Heat Index 83 °F
Dew Point 35 °F
Humidity 16%
Rainfall 0.00 in
Snow Depth Not available.
UV 4.0 out of 12
Pollen 3.80 out of 12
Ozone Good
PM2.5 Good
Flu Activity Sporadic
METAR KF70 231735Z AUTO 00000KT 10SM CLR 25/03 A3003 RMK AO1

More Conditions Fewer Conditions

10-Day Weather Forecast

Almanac

Astronomy

Oct. 23, 2014 Rise Set
Actual Time 6:58 AM PDT 6:04 PM PDT
Civil Twilight 6:33 AM PDT 6:29 PM PDT
Nautical Twilight 6:04 AM PDT 6:58 PM PDT
Astronomical Twilight 5:35 AM PDT 7:27 PM PDT
Moon 6:43 AM PDT 6:08 PM PDT
Length of Visible Light 11h 56m
Length of Day
11h 05m
Tomorrow will be 1m 55s shorter.
Waning Crescent, 0% of the Moon is Illuminated
Today
Waning Crescent
Oct 23
New
Oct 30
First Quarter
Nov 6
Full
Nov 14
Last Quarter

Today's Extremes

State Highs State Lows

Community

WunderPhotos

Upload Photos

1,764,322 photos uploaded!

WunderBlogs® & News

By Dr. Jeff Masters
Director of Meteorology, Weather Underground
By Kari Strenfel
Meteorologist, Weather Underground
By Christopher C. Burt
Weather Historian, Weather Underground
October 23, 2014
October 23, 2014
October 23, 2014

Nearby

Air Quality

  Air Quality AQ Index Pollutant
Yesterday Moderate
OZONE
Yesterday Good
PM2.5
Current Good
PM2.5
Current Good
OZONE
Thursday Good
PM10
Thursday Moderate
OZONE
Thursday Good
CO
Thursday Good
NO2

Snow Depth

Station Depth Elevation
Virginia Lakes Ridge 0 in 9200 ft
Leavitt Lake 1 in 9400 ft
Leavitt Meadows 0 in 7200 ft
Sonora Pass 0 in 8800 ft
Summit Meadow 1 in 9122 ft

Earthquake Activity

City Distance Mag. Time & Date
Delta, Mexico 127 miles 2.5 8:53 PM PDT
2014-10-21
Alberto Oviedo Mota, Mexico 143 miles 2.7 4:13 PM PDT
2014-10-21
Alberto Oviedo Mota, Mexico 141 miles 3.3 3:57 PM PDT
2014-10-21
Minimum magnitude displayed is 2.5.

Coastal Water Temperatures

Place Temperature
No Stations Reporting

Nearby Weather Stations